sensor_id;sensor_type;location;lat;lon;timestamp;temperature;humidity
37806;DHT22;25082;50.870;0.022;2024-03-08T00:00:16;19.70;57.50
37806;DHT22;25082;50.870;0.022;2024-03-08T00:02:45;19.70;57.50
37806;DHT22;25082;50.870;0.022;2024-03-08T00:05:11;19.70;57.50
37806;DHT22;25082;50.870;0.022;2024-03-08T00:07:41;19.70;57.50
37806;DHT22;25082;50.870;0.022;2024-03-08T00:10:08;19.70;57.50
37806;DHT22;25082;50.870;0.022;2024-03-08T00:12:40;19.70;57.50
37806;DHT22;25082;50.870;0.022;2024-03-08T00:15:10;19.70;57.50
37806;DHT22;25082;50.870;0.022;2024-03-08T00:17:36;19.70;57.50
37806;DHT22;25082;50.870;0.022;2024-03-08T00:20:03;19.60;57.20
37806;DHT22;25082;50.870;0.022;2024-03-08T00:22:30;19.60;57.40
37806;DHT22;25082;50.870;0.022;2024-03-08T00:24:56;19.60;57.40
37806;DHT22;25082;50.870;0.022;2024-03-08T00:27:22;19.60;57.40
37806;DHT22;25082;50.870;0.022;2024-03-08T00:29:47;19.60;57.30
37806;DHT22;25082;50.870;0.022;2024-03-08T00:32:13;19.60;57.30
37806;DHT22;25082;50.870;0.022;2024-03-08T00:34:39;19.50;57.10
37806;DHT22;25082;50.870;0.022;2024-03-08T00:37:05;19.50;57.10
37806;DHT22;25082;50.870;0.022;2024-03-08T00:39:31;19.50;57.10
37806;DHT22;25082;50.870;0.022;2024-03-08T00:41:56;19.50;57.10
37806;DHT22;25082;50.870;0.022;2024-03-08T00:44:22;19.50;56.80
37806;DHT22;25082;50.870;0.022;2024-03-08T00:46:48;19.50;56.80
37806;DHT22;25082;50.870;0.022;2024-03-08T00:49:15;19.50;56.80
37806;DHT22;25082;50.870;0.022;2024-03-08T00:51:40;19.50;56.80
37806;DHT22;25082;50.870;0.022;2024-03-08T00:54:06;19.40;56.70
37806;DHT22;25082;50.870;0.022;2024-03-08T00:56:32;19.40;56.70
37806;DHT22;25082;50.870;0.022;2024-03-08T00:58:59;19.50;56.70
37806;DHT22;25082;50.870;0.022;2024-03-08T01:01:26;19.40;56.60
37806;DHT22;25082;50.870;0.022;2024-03-08T01:03:51;19.40;56.60
37806;DHT22;25082;50.870;0.022;2024-03-08T01:06:17;19.40;56.50
37806;DHT22;25082;50.870;0.022;2024-03-08T01:08:44;19.40;56.50
37806;DHT22;25082;50.870;0.022;2024-03-08T01:11:10;19.40;56.50
37806;DHT22;25082;50.870;0.022;2024-03-08T01:13:38;19.40;56.50
37806;DHT22;25082;50.870;0.022;2024-03-08T01:16:04;19.40;56.50
37806;DHT22;25082;50.870;0.022;2024-03-08T01:18:30;19.30;56.40
37806;DHT22;25082;50.870;0.022;2024-03-08T01:20:55;19.30;56.40
37806;DHT22;25082;50.870;0.022;2024-03-08T01:23:21;19.30;56.40
37806;DHT22;25082;50.870;0.022;2024-03-08T01:25:47;19.30;56.30
37806;DHT22;25082;50.870;0.022;2024-03-08T01:28:26;19.30;56.30
37806;DHT22;25082;50.870;0.022;2024-03-08T01:30:52;19.30;56.30
37806;DHT22;25082;50.870;0.022;2024-03-08T01:33:25;19.30;56.30
37806;DHT22;25082;50.870;0.022;2024-03-08T01:35:52;19.30;56.30
37806;DHT22;25082;50.870;0.022;2024-03-08T01:38:18;19.30;56.30
37806;DHT22;25082;50.870;0.022;2024-03-08T01:40:44;19.20;56.20
37806;DHT22;25082;50.870;0.022;2024-03-08T01:43:25;19.20;56.20
37806;DHT22;25082;50.870;0.022;2024-03-08T01:45:58;19.20;56.20
37806;DHT22;25082;50.870;0.022;2024-03-08T01:48:28;19.20;56.30
37806;DHT22;25082;50.870;0.022;2024-03-08T01:50:58;19.20;56.20
37806;DHT22;25082;50.870;0.022;2024-03-08T01:53:24;19.20;56.20
37806;DHT22;25082;50.870;0.022;2024-03-08T01:55:56;19.20;56.20
37806;DHT22;25082;50.870;0.022;2024-03-08T01:58:23;19.20;56.20
37806;DHT22;25082;50.870;0.022;2024-03-08T02:00:49;19.20;56.30
37806;DHT22;25082;50.870;0.022;2024-03-08T02:03:16;19.20;56.20
37806;DHT22;25082;50.870;0.022;2024-03-08T02:05:42;19.10;56.10
37806;DHT22;25082;50.870;0.022;2024-03-08T02:08:10;19.10;56.20
37806;DHT22;25082;50.870;0.022;2024-03-08T02:10:41;19.20;56.80
37806;DHT22;25082;50.870;0.022;2024-03-08T02:13:10;19.10;56.10
37806;DHT22;25082;50.870;0.022;2024-03-08T02:15:58;19.10;56.10
37806;DHT22;25082;50.870;0.022;2024-03-08T02:18:28;19.10;56.10
37806;DHT22;25082;50.870;0.022;2024-03-08T02:20:56;19.10;56.20
37806;DHT22;25082;50.870;0.022;2024-03-08T02:23:22;19.10;56.20
37806;DHT22;25082;50.870;0.022;2024-03-08T02:25:49;19.10;56.10
37806;DHT22;25082;50.870;0.022;2024-03-08T02:28:15;19.00;56.10
37806;DHT22;25082;50.870;0.022;2024-03-08T02:30:41;19.00;56.10
37806;DHT22;25082;50.870;0.022;2024-03-08T02:33:07;19.00;56.10
37806;DHT22;25082;50.870;0.022;2024-03-08T02:35:35;19.00;56.10
37806;DHT22;25082;50.870;0.022;2024-03-08T02:38:02;19.00;56.10
37806;DHT22;25082;50.870;0.022;2024-03-08T02:40:29;19.00;56.20
37806;DHT22;25082;50.870;0.022;2024-03-08T02:42:55;19.00;56.10
37806;DHT22;25082;50.870;0.022;2024-03-08T02:45:21;19.00;56.10
37806;DHT22;25082;50.870;0.022;2024-03-08T02:47:47;19.00;56.10
37806;DHT22;25082;50.870;0.022;2024-03-08T02:50:15;19.00;56.10
37806;DHT22;25082;50.870;0.022;2024-03-08T02:52:44;19.00;56.10
37806;DHT22;25082;50.870;0.022;2024-03-08T02:55:12;18.90;56.10
37806;DHT22;25082;50.870;0.022;2024-03-08T02:57:41;18.90;56.00
37806;DHT22;25082;50.870;0.022;2024-03-08T03:00:07;18.90;56.00
37806;DHT22;25082;50.870;0.022;2024-03-08T03:02:36;18.90;56.00
37806;DHT22;25082;50.870;0.022;2024-03-08T03:05:03;18.90;56.10
37806;DHT22;25082;50.870;0.022;2024-03-08T03:07:32;18.90;56.00
37806;DHT22;25082;50.870;0.022;2024-03-08T03:09:59;18.90;56.00
37806;DHT22;25082;50.870;0.022;2024-03-08T03:12:28;18.90;56.00
37806;DHT22;25082;50.870;0.022;2024-03-08T03:14:54;18.90;56.00
37806;DHT22;25082;50.870;0.022;2024-03-08T03:17:25;18.90;56.00
37806;DHT22;25082;50.870;0.022;2024-03-08T03:19:52;18.80;55.90
37806;DHT22;25082;50.870;0.022;2024-03-08T03:22:19;18.80;56.00
37806;DHT22;25082;50.870;0.022;2024-03-08T03:24:46;18.80;56.00
37806;DHT22;25082;50.870;0.022;2024-03-08T03:27:12;18.80;56.00
37806;DHT22;25082;50.870;0.022;2024-03-08T03:29:42;18.80;56.00
37806;DHT22;25082;50.870;0.022;2024-03-08T03:32:14;18.80;56.00
37806;DHT22;25082;50.870;0.022;2024-03-08T03:34:40;18.80;56.00
37806;DHT22;25082;50.870;0.022;2024-03-08T03:37:07;18.80;56.00
37806;DHT22;25082;50.870;0.022;2024-03-08T03:39:34;18.80;55.90
37806;DHT22;25082;50.870;0.022;2024-03-08T03:42:03;18.70;56.00
37806;DHT22;25082;50.870;0.022;2024-03-08T03:44:29;18.70;55.90
37806;DHT22;25082;50.870;0.022;2024-03-08T03:46:54;18.80;55.90
37806;DHT22;25082;50.870;0.022;2024-03-08T03:49:21;18.70;55.90
37806;DHT22;25082;50.870;0.022;2024-03-08T03:51:47;18.80;56.00
37806;DHT22;25082;50.870;0.022;2024-03-08T03:54:13;18.70;55.90
37806;DHT22;25082;50.870;0.022;2024-03-08T03:56:38;18.70;55.80
37806;DHT22;25082;50.870;0.022;2024-03-08T03:59:06;18.70;55.80
37806;DHT22;25082;50.870;0.022;2024-03-08T04:01:32;18.70;55.80
37806;DHT22;25082;50.870;0.022;2024-03-08T04:03:58;18.70;55.80
37806;DHT22;25082;50.870;0.022;2024-03-08T04:06:24;18.70;55.80
37806;DHT22;25082;50.870;0.022;2024-03-08T04:08:50;18.70;55.80
37806;DHT22;25082;50.870;0.022;2024-03-08T04:11:16;18.70;55.80
37806;DHT22;25082;50.870;0.022;2024-03-08T04:13:42;18.60;55.80
37806;DHT22;25082;50.870;0.022;2024-03-08T04:16:08;18.60;55.70
37806;DHT22;25082;50.870;0.022;2024-03-08T04:18:37;18.60;55.80
37806;DHT22;25082;50.870;0.022;2024-03-08T04:21:07;18.60;55.70
37806;DHT22;25082;50.870;0.022;2024-03-08T04:23:33;18.60;55.70
37806;DHT22;25082;50.870;0.022;2024-03-08T04:26:02;18.60;55.60
37806;DHT22;25082;50.870;0.022;2024-03-08T04:28:28;18.60;55.60
37806;DHT22;25082;50.870;0.022;2024-03-08T04:30:54;18.60;55.60
37806;DHT22;25082;50.870;0.022;2024-03-08T04:33:20;18.60;55.60
37806;DHT22;25082;50.870;0.022;2024-03-08T04:35:47;18.60;55.60
37806;DHT22;25082;50.870;0.022;2024-03-08T04:38:13;18.60;55.50
37806;DHT22;25082;50.870;0.022;2024-03-08T04:40:39;18.50;55.50
37806;DHT22;25082;50.870;0.022;2024-03-08T04:43:05;18.50;55.50
37806;DHT22;25082;50.870;0.022;2024-03-08T04:45:30;18.50;55.50
37806;DHT22;25082;50.870;0.022;2024-03-08T04:47:56;18.50;56.00
37806;DHT22;25082;50.870;0.022;2024-03-08T04:50:22;18.50;55.40
37806;DHT22;25082;50.870;0.022;2024-03-08T04:52:48;18.50;55.50
37806;DHT22;25082;50.870;0.022;2024-03-08T04:55:14;18.50;55.50
37806;DHT22;25082;50.870;0.022;2024-03-08T04:57:40;18.50;55.50
37806;DHT22;25082;50.870;0.022;2024-03-08T05:00:08;18.40;55.40
37806;DHT22;25082;50.870;0.022;2024-03-08T05:02:40;18.40;55.40
37806;DHT22;25082;50.870;0.022;2024-03-08T05:05:09;18.40;55.40
37806;DHT22;25082;50.870;0.022;2024-03-08T05:07:38;18.40;55.30
37806;DHT22;25082;50.870;0.022;2024-03-08T05:10:05;18.40;55.40
37806;DHT22;25082;50.870;0.022;2024-03-08T05:12:35;18.40;55.30
37806;DHT22;25082;50.870;0.022;2024-03-08T05:15:01;18.40;55.40
37806;DHT22;25082;50.870;0.022;2024-03-08T05:17:27;18.40;55.30
37806;DHT22;25082;50.870;0.022;2024-03-08T05:19:53;18.40;55.40
37806;DHT22;25082;50.870;0.022;2024-03-08T05:22:19;18.40;55.30
37806;DHT22;25082;50.870;0.022;2024-03-08T05:24:45;18.40;55.30
37806;DHT22;25082;50.870;0.022;2024-03-08T05:27:10;18.30;55.30
37806;DHT22;25082;50.870;0.022;2024-03-08T05:29:36;18.30;55.20
37806;DHT22;25082;50.870;0.022;2024-03-08T05:32:03;18.30;55.20
37806;DHT22;25082;50.870;0.022;2024-03-08T05:34:29;18.30;55.20
37806;DHT22;25082;50.870;0.022;2024-03-08T05:36:55;18.30;55.20
37806;DHT22;25082;50.870;0.022;2024-03-08T05:39:21;18.30;55.20
37806;DHT22;25082;50.870;0.022;2024-03-08T05:41:47;18.30;55.10
37806;DHT22;25082;50.870;0.022;2024-03-08T05:44:13;18.30;55.10
37806;DHT22;25082;50.870;0.022;2024-03-08T05:46:39;18.30;55.10
37806;DHT22;25082;50.870;0.022;2024-03-08T05:49:06;18.30;55.20
37806;DHT22;25082;50.870;0.022;2024-03-08T05:51:33;18.30;55.10
37806;DHT22;25082;50.870;0.022;2024-03-08T05:54:05;18.30;55.20
37806;DHT22;25082;50.870;0.022;2024-03-08T05:56:31;18.30;55.70
37806;DHT22;25082;50.870;0.022;2024-03-08T05:58:57;18.30;55.20
37806;DHT22;25082;50.870;0.022;2024-03-08T06:01:24;18.30;55.20
37806;DHT22;25082;50.870;0.022;2024-03-08T06:03:50;18.20;55.10
37806;DHT22;25082;50.870;0.022;2024-03-08T06:06:16;18.20;55.10
37806;DHT22;25082;50.870;0.022;2024-03-08T06:08:43;18.20;55.00
37806;DHT22;25082;50.870;0.022;2024-03-08T06:11:09;18.20;55.20
37806;DHT22;25082;50.870;0.022;2024-03-08T06:13:35;18.20;55.10
37806;DHT22;25082;50.870;0.022;2024-03-08T06:16:02;18.20;55.00
37806;DHT22;25082;50.870;0.022;2024-03-08T06:18:30;18.20;55.00
37806;DHT22;25082;50.870;0.022;2024-03-08T06:20:57;18.20;55.00
37806;DHT22;25082;50.870;0.022;2024-03-08T06:23:23;18.20;55.10
37806;DHT22;25082;50.870;0.022;2024-03-08T06:25:49;18.10;55.50
37806;DHT22;25082;50.870;0.022;2024-03-08T06:28:15;18.20;55.10
37806;DHT22;25082;50.870;0.022;2024-03-08T06:30:41;18.10;55.00
37806;DHT22;25082;50.870;0.022;2024-03-08T06:33:07;18.10;55.00
37806;DHT22;25082;50.870;0.022;2024-03-08T06:35:33;18.10;55.00
37806;DHT22;25082;50.870;0.022;2024-03-08T06:37:59;18.10;55.10
37806;DHT22;25082;50.870;0.022;2024-03-08T06:40:25;18.10;55.10
37806;DHT22;25082;50.870;0.022;2024-03-08T06:42:50;18.10;55.00
37806;DHT22;25082;50.870;0.022;2024-03-08T06:45:17;18.10;55.00
37806;DHT22;25082;50.870;0.022;2024-03-08T06:47:46;18.10;55.00
37806;DHT22;25082;50.870;0.022;2024-03-08T06:50:13;18.10;55.10
37806;DHT22;25082;50.870;0.022;2024-03-08T06:52:41;18.10;55.00
37806;DHT22;25082;50.870;0.022;2024-03-08T06:55:08;18.10;55.00
37806;DHT22;25082;50.870;0.022;2024-03-08T06:57:41;18.00;55.00
37806;DHT22;25082;50.870;0.022;2024-03-08T07:00:08;18.00;55.00
37806;DHT22;25082;50.870;0.022;2024-03-08T07:02:42;18.00;54.90
37806;DHT22;25082;50.870;0.022;2024-03-08T07:05:08;18.00;55.00
37806;DHT22;25082;50.870;0.022;2024-03-08T07:07:36;18.00;54.90
37806;DHT22;25082;50.870;0.022;2024-03-08T07:10:03;18.00;54.90
37806;DHT22;25082;50.870;0.022;2024-03-08T07:12:28;18.00;54.80
37806;DHT22;25082;50.870;0.022;2024-03-08T07:14:54;18.00;54.90
37806;DHT22;25082;50.870;0.022;2024-03-08T07:17:20;18.00;55.00
37806;DHT22;25082;50.870;0.022;2024-03-08T07:19:46;18.00;54.80
37806;DHT22;25082;50.870;0.022;2024-03-08T07:22:12;17.90;54.90
37806;DHT22;25082;50.870;0.022;2024-03-08T07:24:37;18.00;54.90
37806;DHT22;25082;50.870;0.022;2024-03-08T07:27:06;17.90;54.90
37806;DHT22;25082;50.870;0.022;2024-03-08T07:29:35;17.90;54.80
37806;DHT22;25082;50.870;0.022;2024-03-08T07:32:01;17.90;54.80
37806;DHT22;25082;50.870;0.022;2024-03-08T07:34:59;17.90;54.80
37806;DHT22;25082;50.870;0.022;2024-03-08T07:37:25;17.90;54.90
37806;DHT22;25082;50.870;0.022;2024-03-08T07:39:51;17.90;54.90
37806;DHT22;25082;50.870;0.022;2024-03-08T07:42:16;17.90;54.80
37806;DHT22;25082;50.870;0.022;2024-03-08T07:44:42;17.90;54.90
37806;DHT22;25082;50.870;0.022;2024-03-08T07:47:08;17.90;55.00
37806;DHT22;25082;50.870;0.022;2024-03-08T07:49:35;17.90;55.20
37806;DHT22;25082;50.870;0.022;2024-03-08T07:52:03;17.90;55.30
37806;DHT22;25082;50.870;0.022;2024-03-08T07:54:30;18.00;55.30
37806;DHT22;25082;50.870;0.022;2024-03-08T07:56:56;18.00;55.50
37806;DHT22;25082;50.870;0.022;2024-03-08T07:59:22;18.00;55.60
37806;DHT22;25082;50.870;0.022;2024-03-08T08:01:48;18.00;55.60
37806;DHT22;25082;50.870;0.022;2024-03-08T08:04:14;18.10;55.70
37806;DHT22;25082;50.870;0.022;2024-03-08T08:06:40;18.10;55.60
37806;DHT22;25082;50.870;0.022;2024-03-08T08:09:09;18.10;55.60
37806;DHT22;25082;50.870;0.022;2024-03-08T08:11:41;18.20;55.60
37806;DHT22;25082;50.870;0.022;2024-03-08T08:14:09;18.20;55.60
37806;DHT22;25082;50.870;0.022;2024-03-08T08:16:36;18.20;55.60
37806;DHT22;25082;50.870;0.022;2024-03-08T08:19:08;18.20;55.50
37806;DHT22;25082;50.870;0.022;2024-03-08T08:21:36;18.30;55.50
37806;DHT22;25082;50.870;0.022;2024-03-08T08:24:05;18.30;55.50
37806;DHT22;25082;50.870;0.022;2024-03-08T08:26:32;18.30;55.50
37806;DHT22;25082;50.870;0.022;2024-03-08T08:29:01;18.30;55.40
37806;DHT22;25082;50.870;0.022;2024-03-08T08:31:27;18.40;55.50
37806;DHT22;25082;50.870;0.022;2024-03-08T08:33:53;18.40;55.50
37806;DHT22;25082;50.870;0.022;2024-03-08T08:36:24;18.40;55.50
37806;DHT22;25082;50.870;0.022;2024-03-08T08:38:50;18.40;55.40
37806;DHT22;25082;50.870;0.022;2024-03-08T08:41:16;18.40;55.50
37806;DHT22;25082;50.870;0.022;2024-03-08T08:43:43;18.40;55.50
37806;DHT22;25082;50.870;0.022;2024-03-08T08:46:11;18.50;55.50
37806;DHT22;25082;50.870;0.022;2024-03-08T08:48:40;18.50;55.50
37806;DHT22;25082;50.870;0.022;2024-03-08T08:51:10;18.50;55.60
37806;DHT22;25082;50.870;0.022;2024-03-08T08:53:42;18.50;55.60
37806;DHT22;25082;50.870;0.022;2024-03-08T08:56:09;18.50;55.60
37806;DHT22;25082;50.870;0.022;2024-03-08T08:58:44;18.60;55.70
37806;DHT22;25082;50.870;0.022;2024-03-08T09:01:10;18.60;55.60
37806;DHT22;25082;50.870;0.022;2024-03-08T09:03:37;18.60;55.60
37806;DHT22;25082;50.870;0.022;2024-03-08T09:06:06;18.60;55.60
37806;DHT22;25082;50.870;0.022;2024-03-08T09:08:44;18.70;55.60
37806;DHT22;25082;50.870;0.022;2024-03-08T09:11:11;18.70;55.70
37806;DHT22;25082;50.870;0.022;2024-03-08T09:13:37;18.70;55.70
37806;DHT22;25082;50.870;0.022;2024-03-08T09:16:03;18.70;55.70
37806;DHT22;25082;50.870;0.022;2024-03-08T09:18:31;18.70;55.80
37806;DHT22;25082;50.870;0.022;2024-03-08T09:20:58;18.70;55.80
37806;DHT22;25082;50.870;0.022;2024-03-08T09:23:25;18.70;55.80
37806;DHT22;25082;50.870;0.022;2024-03-08T09:25:56;18.80;55.80
37806;DHT22;25082;50.870;0.022;2024-03-08T09:28:23;18.80;55.80
37806;DHT22;25082;50.870;0.022;2024-03-08T09:30:49;18.80;55.80
37806;DHT22;25082;50.870;0.022;2024-03-08T09:33:15;18.90;55.80
37806;DHT22;25082;50.870;0.022;2024-03-08T09:35:45;18.90;55.80
37806;DHT22;25082;50.870;0.022;2024-03-08T09:38:12;18.90;55.80
37806;DHT22;25082;50.870;0.022;2024-03-08T09:40:41;18.90;55.80
37806;DHT22;25082;50.870;0.022;2024-03-08T09:43:07;18.90;55.80
37806;DHT22;25082;50.870;0.022;2024-03-08T09:45:36;19.00;55.90
37806;DHT22;25082;50.870;0.022;2024-03-08T09:48:13;19.00;55.80
37806;DHT22;25082;50.870;0.022;2024-03-08T09:50:40;19.00;55.80
37806;DHT22;25082;50.870;0.022;2024-03-08T09:53:07;19.00;55.80
37806;DHT22;25082;50.870;0.022;2024-03-08T09:55:37;19.00;55.80
37806;DHT22;25082;50.870;0.022;2024-03-08T09:58:08;19.00;55.80
37806;DHT22;25082;50.870;0.022;2024-03-08T10:00:43;19.00;55.80
37806;DHT22;25082;50.870;0.022;2024-03-08T10:03:09;19.00;55.80
37806;DHT22;25082;50.870;0.022;2024-03-08T10:05:36;19.10;55.80
37806;DHT22;25082;50.870;0.022;2024-03-08T10:08:02;19.10;55.80
37806;DHT22;25082;50.870;0.022;2024-03-08T10:10:29;19.10;55.80
37806;DHT22;25082;50.870;0.022;2024-03-08T10:12:55;19.10;55.80
37806;DHT22;25082;50.870;0.022;2024-03-08T10:15:21;19.10;55.80
37806;DHT22;25082;50.870;0.022;2024-03-08T10:17:47;19.10;55.70
37806;DHT22;25082;50.870;0.022;2024-03-08T10:20:18;19.20;55.80
37806;DHT22;25082;50.870;0.022;2024-03-08T10:22:44;19.20;55.70
37806;DHT22;25082;50.870;0.022;2024-03-08T10:25:13;19.20;55.70
37806;DHT22;25082;50.870;0.022;2024-03-08T10:27:39;19.20;55.70
37806;DHT22;25082;50.870;0.022;2024-03-08T10:30:17;19.20;55.70
37806;DHT22;25082;50.870;0.022;2024-03-08T10:32:45;19.30;55.80
37806;DHT22;25082;50.870;0.022;2024-03-08T10:35:12;19.30;55.70
37806;DHT22;25082;50.870;0.022;2024-03-08T10:37:58;19.30;55.70
37806;DHT22;25082;50.870;0.022;2024-03-08T10:40:26;19.30;55.70
37806;DHT22;25082;50.870;0.022;2024-03-08T10:42:57;19.30;55.60
37806;DHT22;25082;50.870;0.022;2024-03-08T10:45:38;19.40;55.80
37806;DHT22;25082;50.870;0.022;2024-03-08T10:50:42;19.40;55.80
37806;DHT22;25082;50.870;0.022;2024-03-08T10:53:13;19.40;55.80
37806;DHT22;25082;50.870;0.022;2024-03-08T10:55:40;19.40;55.80
37806;DHT22;25082;50.870;0.022;2024-03-08T10:58:09;19.40;55.80
37806;DHT22;25082;50.870;0.022;2024-03-08T11:00:35;19.50;55.90
37806;DHT22;25082;50.870;0.022;2024-03-08T11:03:03;19.50;56.40
37806;DHT22;25082;50.870;0.022;2024-03-08T11:05:39;19.50;55.90
37806;DHT22;25082;50.870;0.022;2024-03-08T11:08:20;19.50;55.90
37806;DHT22;25082;50.870;0.022;2024-03-08T11:10:54;19.50;55.90
37806;DHT22;25082;50.870;0.022;2024-03-08T11:13:40;19.50;55.90
37806;DHT22;25082;50.870;0.022;2024-03-08T11:21:36;19.50;56.30
37806;DHT22;25082;50.870;0.022;2024-03-08T11:24:11;19.60;56.60
37806;DHT22;25082;50.870;0.022;2024-03-08T11:26:42;19.50;57.20
37806;DHT22;25082;50.870;0.022;2024-03-08T11:29:34;19.60;57.80
37806;DHT22;25082;50.870;0.022;2024-03-08T11:34:32;19.60;57.90
37806;DHT22;25082;50.870;0.022;2024-03-08T11:36:59;19.70;58.10
37806;DHT22;25082;50.870;0.022;2024-03-08T11:39:26;19.70;58.10
37806;DHT22;25082;50.870;0.022;2024-03-08T11:41:52;19.70;58.50
37806;DHT22;25082;50.870;0.022;2024-03-08T11:44:19;19.70;58.40
37806;DHT22;25082;50.870;0.022;2024-03-08T11:46:45;19.60;58.30
37806;DHT22;25082;50.870;0.022;2024-03-08T11:49:14;19.60;58.10
37806;DHT22;25082;50.870;0.022;2024-03-08T11:51:41;19.60;58.20
37806;DHT22;25082;50.870;0.022;2024-03-08T11:54:11;19.60;58.30
37806;DHT22;25082;50.870;0.022;2024-03-08T11:56:38;19.60;56.20
37806;DHT22;25082;50.870;0.022;2024-03-08T11:59:05;19.50;54.70
37806;DHT22;25082;50.870;0.022;2024-03-08T12:01:36;19.40;51.70
37806;DHT22;25082;50.870;0.022;2024-03-08T12:04:01;19.40;52.60
37806;DHT22;25082;50.870;0.022;2024-03-08T12:06:37;19.30;53.20
37806;DHT22;25082;50.870;0.022;2024-03-08T12:09:09;19.40;53.90
37806;DHT22;25082;50.870;0.022;2024-03-08T12:11:36;19.40;54.40
37806;DHT22;25082;50.870;0.022;2024-03-08T12:14:02;19.50;55.00
37806;DHT22;25082;50.870;0.022;2024-03-08T12:16:28;19.50;55.40
37806;DHT22;25082;50.870;0.022;2024-03-08T12:18:54;19.50;55.80
37806;DHT22;25082;50.870;0.022;2024-03-08T12:21:20;19.50;56.10
37806;DHT22;25082;50.870;0.022;2024-03-08T12:23:48;19.60;56.20
37806;DHT22;25082;50.870;0.022;2024-03-08T12:26:28;19.60;56.30
37806;DHT22;25082;50.870;0.022;2024-03-08T12:29:00;19.70;56.60
37806;DHT22;25082;50.870;0.022;2024-03-08T12:31:39;19.70;56.70
37806;DHT22;25082;50.870;0.022;2024-03-08T12:34:08;19.70;56.80
37806;DHT22;25082;50.870;0.022;2024-03-08T12:36:36;19.70;56.90
37806;DHT22;25082;50.870;0.022;2024-03-08T12:39:02;19.80;57.00
37806;DHT22;25082;50.870;0.022;2024-03-08T12:41:29;19.70;57.10
37806;DHT22;25082;50.870;0.022;2024-03-08T12:43:55;19.80;57.30
37806;DHT22;25082;50.870;0.022;2024-03-08T12:46:21;19.70;57.30
37806;DHT22;25082;50.870;0.022;2024-03-08T12:48:48;19.80;57.40
37806;DHT22;25082;50.870;0.022;2024-03-08T12:51:14;19.70;57.50
37806;DHT22;25082;50.870;0.022;2024-03-08T12:53:42;19.80;57.40
37806;DHT22;25082;50.870;0.022;2024-03-08T12:56:10;19.70;56.30
37806;DHT22;25082;50.870;0.022;2024-03-08T12:58:37;19.70;54.90
37806;DHT22;25082;50.870;0.022;2024-03-08T13:01:04;19.70;54.70
37806;DHT22;25082;50.870;0.022;2024-03-08T13:03:36;19.70;54.80
37806;DHT22;25082;50.870;0.022;2024-03-08T13:06:05;19.60;54.90
37806;DHT22;25082;50.870;0.022;2024-03-08T13:08:37;19.70;55.10
37806;DHT22;25082;50.870;0.022;2024-03-08T13:11:06;19.70;55.40
37806;DHT22;25082;50.870;0.022;2024-03-08T13:13:33;19.70;55.60
37806;DHT22;25082;50.870;0.022;2024-03-08T13:16:02;19.70;55.80
37806;DHT22;25082;50.870;0.022;2024-03-08T13:18:28;19.70;56.10
37806;DHT22;25082;50.870;0.022;2024-03-08T13:20:55;19.70;56.30
37806;DHT22;25082;50.870;0.022;2024-03-08T13:23:23;19.80;56.50
37806;DHT22;25082;50.870;0.022;2024-03-08T13:25:48;19.80;56.50
37806;DHT22;25082;50.870;0.022;2024-03-08T13:28:15;19.80;56.50
37806;DHT22;25082;50.870;0.022;2024-03-08T13:30:41;19.80;56.60
37806;DHT22;25082;50.870;0.022;2024-03-08T13:33:07;19.80;56.70
37806;DHT22;25082;50.870;0.022;2024-03-08T13:35:33;19.90;56.80
37806;DHT22;25082;50.870;0.022;2024-03-08T13:38:00;19.80;56.80
37806;DHT22;25082;50.870;0.022;2024-03-08T13:40:28;19.90;56.90
37806;DHT22;25082;50.870;0.022;2024-03-08T13:42:54;19.90;57.00
37806;DHT22;25082;50.870;0.022;2024-03-08T13:45:20;19.90;57.00
37806;DHT22;25082;50.870;0.022;2024-03-08T13:47:50;19.90;57.00
37806;DHT22;25082;50.870;0.022;2024-03-08T13:50:19;19.90;57.10
37806;DHT22;25082;50.870;0.022;2024-03-08T13:52:47;19.90;57.20
37806;DHT22;25082;50.870;0.022;2024-03-08T13:55:17;20.00;57.20
37806;DHT22;25082;50.870;0.022;2024-03-08T13:57:43;20.00;57.30
37806;DHT22;25082;50.870;0.022;2024-03-08T14:00:12;20.00;57.40
37806;DHT22;25082;50.870;0.022;2024-03-08T14:02:38;20.00;57.40
37806;DHT22;25082;50.870;0.022;2024-03-08T14:05:09;20.00;57.30
37806;DHT22;25082;50.870;0.022;2024-03-08T14:07:36;20.00;57.40
37806;DHT22;25082;50.870;0.022;2024-03-08T14:10:03;20.00;57.50
37806;DHT22;25082;50.870;0.022;2024-03-08T14:12:29;20.00;57.70
37806;DHT22;25082;50.870;0.022;2024-03-08T14:14:55;20.00;57.80
37806;DHT22;25082;50.870;0.022;2024-03-08T14:17:25;20.00;58.50
37806;DHT22;25082;50.870;0.022;2024-03-08T14:19:53;20.00;58.60
37806;DHT22;25082;50.870;0.022;2024-03-08T14:22:20;19.90;58.90
37806;DHT22;25082;50.870;0.022;2024-03-08T14:24:46;19.90;59.30
37806;DHT22;25082;50.870;0.022;2024-03-08T14:27:11;19.90;59.40
37806;DHT22;25082;50.870;0.022;2024-03-08T14:29:38;19.90;59.30
37806;DHT22;25082;50.870;0.022;2024-03-08T14:32:07;19.90;59.40
37806;DHT22;25082;50.870;0.022;2024-03-08T14:34:34;19.90;59.50
37806;DHT22;25082;50.870;0.022;2024-03-08T14:37:00;19.90;59.50
37806;DHT22;25082;50.870;0.022;2024-03-08T14:39:26;20.00;59.20
37806;DHT22;25082;50.870;0.022;2024-03-08T14:41:55;20.00;59.00
37806;DHT22;25082;50.870;0.022;2024-03-08T14:44:23;20.00;58.90
37806;DHT22;25082;50.870;0.022;2024-03-08T14:46:57;20.00;58.80
37806;DHT22;25082;50.870;0.022;2024-03-08T14:49:24;20.00;58.70
37806;DHT22;25082;50.870;0.022;2024-03-08T14:51:51;20.00;58.70
37806;DHT22;25082;50.870;0.022;2024-03-08T14:54:17;20.10;58.70
37806;DHT22;25082;50.870;0.022;2024-03-08T14:56:48;20.10;58.60
37806;DHT22;25082;50.870;0.022;2024-03-08T14:59:17;20.10;58.60
37806;DHT22;25082;50.870;0.022;2024-03-08T15:01:45;20.10;58.50
37806;DHT22;25082;50.870;0.022;2024-03-08T15:04:11;20.20;58.60
37806;DHT22;25082;50.870;0.022;2024-03-08T15:06:43;20.10;58.40
37806;DHT22;25082;50.870;0.022;2024-03-08T15:09:14;20.20;58.40
37806;DHT22;25082;50.870;0.022;2024-03-08T15:11:46;20.10;58.40
37806;DHT22;25082;50.870;0.022;2024-03-08T15:14:12;20.10;58.30
37806;DHT22;25082;50.870;0.022;2024-03-08T15:16:39;20.10;58.30
37806;DHT22;25082;50.870;0.022;2024-03-08T15:19:09;20.10;58.30
37806;DHT22;25082;50.870;0.022;2024-03-08T15:21:37;20.20;58.10
37806;DHT22;25082;50.870;0.022;2024-03-08T15:24:03;20.20;58.20
37806;DHT22;25082;50.870;0.022;2024-03-08T15:26:30;20.10;58.20
37806;DHT22;25082;50.870;0.022;2024-03-08T15:28:57;20.10;58.40
37806;DHT22;25082;50.870;0.022;2024-03-08T15:31:23;20.10;58.50
37806;DHT22;25082;50.870;0.022;2024-03-08T15:33:50;20.10;58.60
37806;DHT22;25082;50.870;0.022;2024-03-08T15:36:32;20.10;58.60
37806;DHT22;25082;50.870;0.022;2024-03-08T15:38:59;20.10;58.60
37806;DHT22;25082;50.870;0.022;2024-03-08T15:41:26;20.10;58.60
37806;DHT22;25082;50.870;0.022;2024-03-08T15:43:52;20.10;58.60